createdAt,value
2018-09-04T00:02:18.533Z,46.37
2018-09-04T00:04:47.301Z,47.30
2018-09-04T00:07:19.642Z,48.73
2018-09-04T00:09:48.808Z,47.53
2018-09-04T00:12:17.456Z,46.20
2018-09-04T00:14:46.260Z,49.50
2018-09-04T00:17:14.878Z,47.70
2018-09-04T00:19:43.703Z,47.60
2018-09-04T00:22:12.440Z,50.23
2018-09-04T00:24:41.117Z,48.33
2018-09-04T00:27:09.776Z,52.70
2018-09-04T00:29:38.714Z,50.47
2018-09-04T00:32:07.645Z,42.83
2018-09-04T00:34:36.348Z,45.73
2018-09-04T00:37:05.124Z,49.90
2018-09-04T00:39:36.708Z,47.37
2018-09-04T00:42:05.417Z,43.87
2018-09-04T00:44:34.271Z,50.27
2018-09-04T00:47:06.691Z,50.20
2018-09-04T00:49:35.484Z,57.53
2018-09-04T00:52:04.264Z,54.30
2018-09-04T00:54:32.994Z,53.50
2018-09-04T00:57:02.629Z,52.90
2018-09-04T00:59:34.206Z,50.10
2018-09-04T01:02:02.915Z,47.47
2018-09-04T01:04:31.558Z,46.77
2018-09-04T01:07:00.304Z,49.70
2018-09-04T01:09:29.069Z,50.23
2018-09-04T01:11:57.708Z,56.90
2018-09-04T01:14:26.404Z,59.87
2018-09-04T01:16:54.936Z,62.97
2018-09-04T01:19:23.572Z,58.30
2018-09-04T01:21:52.175Z,57.47
2018-09-04T01:24:20.835Z,55.60
2018-09-04T01:26:49.348Z,56.40
2018-09-04T01:29:18.048Z,57.97
2018-09-04T01:31:46.680Z,56.77
2018-09-04T01:34:15.378Z,52.30
2018-09-04T01:36:43.945Z,52.93
2018-09-04T01:39:12.579Z,51.97
2018-09-04T01:41:41.232Z,51.77
2018-09-04T01:44:09.852Z,56.80
2018-09-04T01:46:38.401Z,52.50
2018-09-04T01:49:07.094Z,52.47
2018-09-04T01:51:35.736Z,52.50
2018-09-04T01:54:04.300Z,46.90
2018-09-04T01:56:32.955Z,47.43
2018-09-04T01:59:01.616Z,45.80
2018-09-04T02:01:30.323Z,44.00
2018-09-04T02:03:58.979Z,45.10
2018-09-04T02:06:27.658Z,44.53
2018-09-04T02:08:56.340Z,48.53
2018-09-04T02:11:25.027Z,48.73
2018-09-04T02:13:53.710Z,47.23
2018-09-04T02:16:22.315Z,45.23
2018-09-04T02:18:51.004Z,45.50
2018-09-04T02:21:19.656Z,46.87
2018-09-04T02:23:48.206Z,48.40
2018-09-04T02:26:16.731Z,45.50
2018-09-04T02:28:45.391Z,48.60
2018-09-04T02:31:13.905Z,52.17
2018-09-04T02:33:42.481Z,49.40
2018-09-04T02:36:11.136Z,54.07
2018-09-04T02:38:39.696Z,50.50
2018-09-04T02:41:08.676Z,51.57
2018-09-04T02:43:37.280Z,51.73
2018-09-04T02:46:06.036Z,45.13
2018-09-04T02:48:34.549Z,46.90
2018-09-04T02:51:03.203Z,47.17
2018-09-04T02:53:31.862Z,45.87
2018-09-04T02:56:00.661Z,42.87
2018-09-04T02:58:29.349Z,37.87
2018-09-04T03:00:57.971Z,45.47
2018-09-04T03:03:26.638Z,52.90
2018-09-04T03:05:55.261Z,46.10
2018-09-04T03:08:23.795Z,47.87
2018-09-04T03:10:52.472Z,44.90
2018-09-04T03:13:21.167Z,45.90
2018-09-04T03:15:49.787Z,50.03
2018-09-04T03:18:19.527Z,45.47
2018-09-04T03:20:48.057Z,49.47
2018-09-04T03:23:16.809Z,49.97
2018-09-04T03:25:45.471Z,50.40
2018-09-04T03:28:14.041Z,52.87
2018-09-04T03:30:42.821Z,51.00
2018-09-04T03:33:11.651Z,46.53
2018-09-04T03:35:40.326Z,49.87
2018-09-04T03:38:08.873Z,49.63
2018-09-04T03:40:37.579Z,48.07
2018-09-04T03:43:07.197Z,49.93
2018-09-04T03:45:35.942Z,45.13
2018-09-04T03:48:04.816Z,51.47
2018-09-04T03:50:33.337Z,48.17
2018-09-04T03:53:01.960Z,55.40
2018-09-04T03:55:30.700Z,58.17
2018-09-04T03:57:59.282Z,49.87
2018-09-04T04:00:27.897Z,47.10
2018-09-04T04:02:56.705Z,51.93
2018-09-04T04:05:25.304Z,49.20
2018-09-04T04:07:54.038Z,52.13
2018-09-04T04:10:22.835Z,53.70
2018-09-04T04:12:51.510Z,59.00
2018-09-04T04:15:20.133Z,52.70
2018-09-04T04:17:48.710Z,54.77
2018-09-04T04:20:17.351Z,55.20
2018-09-04T04:22:46.555Z,66.07
2018-09-04T04:25:15.240Z,73.33
2018-09-04T04:27:43.831Z,62.47
2018-09-04T04:30:12.474Z,56.97
2018-09-04T04:32:41.078Z,60.27
2018-09-04T04:35:09.763Z,52.53
2018-09-04T04:37:38.304Z,56.50
2018-09-04T04:40:07.412Z,61.13
2018-09-04T04:42:36.064Z,66.83
2018-09-04T04:45:04.802Z,58.03
2018-09-04T04:47:38.681Z,54.23
2018-09-04T04:50:07.524Z,61.07
2018-09-04T04:52:36.177Z,54.50
2018-09-04T04:55:04.976Z,52.73
2018-09-04T04:57:33.598Z,57.67
2018-09-04T05:00:02.239Z,58.03
2018-09-04T05:02:30.968Z,60.40
2018-09-04T05:04:59.774Z,59.63
2018-09-04T05:07:28.450Z,61.70
2018-09-04T05:09:57.195Z,59.00
2018-09-04T05:12:25.978Z,62.73
2018-09-04T05:14:54.709Z,56.77
2018-09-04T05:17:23.344Z,65.70
2018-09-04T05:19:51.954Z,61.73
2018-09-04T05:22:20.630Z,65.03
2018-09-04T05:24:49.333Z,66.43
2018-09-04T05:27:18.102Z,75.83
2018-09-04T05:29:46.871Z,62.23
2018-09-04T05:32:20.709Z,75.23
2018-09-04T05:34:49.417Z,68.43
2018-09-04T05:37:18.213Z,67.33
2018-09-04T05:39:46.880Z,75.10
2018-09-04T05:42:20.736Z,70.63
2018-09-04T05:44:49.457Z,65.60
2018-09-04T05:47:18.252Z,68.13
2018-09-04T05:49:46.910Z,70.43
2018-09-04T05:52:16.477Z,74.13
2018-09-04T05:54:45.174Z,70.70
2018-09-04T05:57:13.921Z,76.37
2018-09-04T05:59:42.597Z,72.90
2018-09-04T06:02:11.380Z,70.20
2018-09-04T06:04:40.106Z,80.60
2018-09-04T06:07:08.787Z,77.93
2018-09-04T06:12:44.662Z,72.80
2018-09-04T06:15:13.939Z,77.07
2018-09-04T06:17:43.171Z,75.27
2018-09-04T06:20:12.792Z,72.50
2018-09-04T06:22:41.991Z,77.00
2018-09-04T06:25:11.459Z,72.37
2018-09-04T06:27:40.719Z,80.53
2018-09-04T06:30:10.182Z,76.27
2018-09-04T06:32:39.441Z,80.97
2018-09-04T06:35:08.864Z,72.80
2018-09-04T06:37:38.158Z,67.80
2018-09-04T06:40:07.668Z,67.33
2018-09-04T06:42:36.978Z,67.57
2018-09-04T06:45:06.381Z,69.93
2018-09-04T06:48:05.783Z,60.00
2018-09-04T06:50:49.730Z,64.10
2018-09-04T06:53:19.377Z,66.37
2018-09-04T06:56:14.478Z,60.40
2018-09-04T07:02:24.208Z,59.03
2018-09-04T07:04:53.635Z,57.63
2018-09-04T07:07:23.025Z,56.27
2018-09-04T07:10:00.194Z,54.77
2018-09-04T07:12:30.139Z,55.97
2018-09-04T07:15:03.979Z,56.47
2018-09-04T07:17:33.390Z,55.20
2018-09-04T07:20:04.036Z,53.00
2018-09-04T07:22:33.541Z,58.17
2018-09-04T07:25:02.930Z,51.57
2018-09-04T07:27:33.283Z,58.97
2018-09-04T07:30:12.581Z,57.33
2018-09-04T07:32:41.926Z,54.60
2018-09-04T07:35:11.074Z,56.77
2018-09-04T07:37:40.672Z,51.50
2018-09-04T07:40:10.062Z,54.30
2018-09-04T07:42:39.439Z,53.53
2018-09-04T07:45:09.719Z,49.90
2018-09-04T07:47:38.922Z,51.60
2018-09-04T07:50:09.243Z,47.63
2018-09-04T07:52:38.590Z,45.37
2018-09-04T07:55:08.211Z,48.80
2018-09-04T07:57:37.545Z,49.43
2018-09-04T08:00:07.639Z,47.30
2018-09-04T08:02:36.919Z,47.57
2018-09-04T08:05:06.427Z,48.70
2018-09-04T08:07:35.738Z,42.93
2018-09-04T08:10:05.113Z,44.20
2018-09-04T08:12:34.333Z,46.23
2018-09-04T08:15:03.656Z,46.87
2018-09-04T08:17:32.950Z,44.10
2018-09-04T08:20:02.378Z,39.17
2018-09-04T08:22:31.711Z,47.83
2018-09-04T08:25:00.947Z,42.77
2018-09-04T08:27:30.160Z,44.07
2018-09-04T08:29:59.491Z,39.47
2018-09-04T08:32:28.722Z,42.17
2018-09-04T08:34:57.907Z,48.77
2018-09-04T08:37:27.249Z,43.40
2018-09-04T08:39:56.498Z,46.17
2018-09-04T08:42:25.800Z,49.53
2018-09-04T08:44:55.171Z,41.30
2018-09-04T08:47:24.384Z,41.27
2018-09-04T08:49:53.775Z,43.50
2018-09-04T08:52:23.034Z,40.63
2018-09-04T08:54:52.441Z,43.17
2018-09-04T08:57:21.774Z,39.93
2018-09-04T08:59:50.978Z,45.50
2018-09-04T09:02:20.198Z,41.87
2018-09-04T09:04:49.366Z,40.87
2018-09-04T09:07:18.691Z,37.20
2018-09-04T09:09:47.894Z,41.03
2018-09-04T09:12:17.136Z,39.97
2018-09-04T09:14:46.346Z,36.80
2018-09-04T09:17:15.512Z,35.57
2018-09-04T09:19:44.683Z,34.43
2018-09-04T09:22:13.899Z,38.17
2018-09-04T09:24:43.118Z,37.70
2018-09-04T09:27:13.759Z,35.83
2018-09-04T09:29:42.965Z,37.27
2018-09-04T09:32:12.162Z,32.90
2018-09-04T09:34:41.538Z,37.80
2018-09-04T09:37:10.869Z,39.00
2018-09-04T09:39:40.193Z,38.50
2018-09-04T09:42:12.771Z,35.47
2018-09-04T09:44:43.958Z,37.00
2018-09-04T09:47:13.214Z,35.47
2018-09-04T09:49:42.583Z,34.80
2018-09-04T09:52:11.860Z,35.07
2018-09-04T09:54:41.015Z,33.40
2018-09-04T09:57:10.201Z,35.37
2018-09-04T09:59:39.487Z,32.93
2018-09-04T10:02:13.666Z,32.40
2018-09-04T10:04:43.062Z,34.30
2018-09-04T10:07:12.415Z,33.73
2018-09-04T10:09:41.827Z,35.93
2018-09-04T10:12:11.294Z,34.30
2018-09-04T10:14:40.538Z,34.07
2018-09-04T10:17:09.946Z,36.00
2018-09-04T10:19:39.157Z,31.93
2018-09-04T10:22:08.481Z,34.40
2018-09-04T10:24:37.826Z,34.23
2018-09-04T10:27:07.231Z,31.37
2018-09-04T10:29:36.441Z,36.10
2018-09-04T10:32:05.816Z,46.90
2018-09-04T10:34:34.969Z,38.73
2018-09-04T10:37:04.263Z,34.57
2018-09-04T10:39:38.649Z,36.13
2018-09-04T10:42:07.977Z,32.87
2018-09-04T10:44:37.222Z,38.37
2018-09-04T10:47:06.516Z,36.83
2018-09-04T10:49:35.735Z,25.47
2018-09-04T10:52:04.998Z,25.97
2018-09-04T10:54:34.399Z,28.60
2018-09-04T10:57:03.646Z,24.03
2018-09-04T10:59:32.882Z,30.60
2018-09-04T11:02:02.166Z,45.43
2018-09-04T11:04:31.534Z,25.23
2018-09-04T11:07:00.710Z,23.73
2018-09-04T11:09:30.185Z,27.33
2018-09-04T11:11:59.606Z,24.20
2018-09-04T11:14:28.774Z,26.03
2018-09-04T11:16:58.114Z,24.57
2018-09-04T11:19:27.418Z,25.77
2018-09-04T11:21:57.846Z,23.00
2018-09-04T11:24:27.078Z,24.93
2018-09-04T11:26:56.401Z,22.77
2018-09-04T11:29:25.590Z,24.40
2018-09-04T11:31:54.974Z,27.83
2018-09-04T11:34:24.129Z,30.03
2018-09-04T11:36:53.454Z,26.80
2018-09-04T11:39:22.750Z,31.47
2018-09-04T11:41:52.122Z,30.63
2018-09-04T11:44:21.305Z,26.37
2018-09-04T11:46:50.570Z,27.90
2018-09-04T11:49:19.785Z,28.63
2018-09-04T11:51:49.098Z,24.90
2018-09-04T11:54:18.417Z,24.27
2018-09-04T11:56:47.761Z,25.90
2018-09-04T11:59:17.060Z,23.47
2018-09-04T12:01:49.849Z,20.87
2018-09-04T12:04:19.179Z,19.97
2018-09-04T12:06:48.407Z,20.97
2018-09-04T12:09:17.843Z,17.90
2018-09-04T12:11:51.227Z,21.77
2018-09-04T12:14:20.955Z,27.53
2018-09-04T12:16:50.647Z,22.67
2018-09-04T12:19:19.899Z,23.17
2018-09-04T12:21:49.377Z,20.40
2018-09-04T12:24:18.649Z,18.70
2018-09-04T12:26:48.005Z,24.27
2018-09-04T12:29:17.199Z,21.80
2018-09-04T12:31:46.574Z,23.57
2018-09-04T12:34:15.926Z,22.20
2018-09-04T12:36:45.135Z,20.00
2018-09-04T12:39:14.346Z,21.23
2018-09-04T12:41:43.692Z,20.80
2018-09-04T12:44:12.942Z,20.30
2018-09-04T12:46:42.251Z,20.33
2018-09-04T12:49:11.489Z,18.03
2018-09-04T12:51:40.924Z,20.83
2018-09-04T12:54:10.114Z,21.57
2018-09-04T12:56:39.398Z,26.00
2018-09-04T12:59:08.674Z,27.00
2018-09-04T13:01:37.988Z,24.83
2018-09-04T13:04:07.233Z,19.37
2018-09-04T13:06:36.466Z,19.80
2018-09-04T13:09:07.171Z,21.90
2018-09-04T13:11:36.437Z,19.17
2018-09-04T13:14:06.335Z,18.40
2018-09-04T13:16:35.682Z,15.70
2018-09-04T13:19:04.974Z,16.00
2018-09-04T13:21:34.205Z,16.67
2018-09-04T13:24:03.449Z,13.13
2018-09-04T13:26:32.805Z,14.30
2018-09-04T13:29:02.035Z,14.00
2018-09-04T13:31:31.308Z,14.78
2018-09-04T13:34:00.720Z,15.85
2018-09-04T13:36:30.205Z,15.48
2018-09-04T13:38:59.367Z,18.10
2018-09-04T13:41:32.666Z,15.72
2018-09-04T13:44:02.011Z,15.10
2018-09-04T13:46:31.293Z,16.70
2018-09-04T13:49:00.645Z,15.85
2018-09-04T13:51:29.886Z,16.90
2018-09-04T13:53:59.353Z,16.73
2018-09-04T13:56:28.530Z,16.35
2018-09-04T13:58:57.845Z,16.75
2018-09-04T14:01:27.189Z,15.95
2018-09-04T14:03:56.583Z,14.47
2018-09-04T14:06:25.832Z,16.02
2018-09-04T14:08:55.086Z,17.67
2018-09-04T14:11:24.443Z,15.15
2018-09-04T14:13:53.748Z,14.53
2018-09-04T14:16:24.968Z,12.23
2018-09-04T14:18:54.163Z,13.75
2018-09-04T14:21:23.387Z,12.82
2018-09-04T14:23:52.679Z,14.50
2018-09-04T14:26:21.937Z,13.62
2018-09-04T14:29:06.422Z,13.95
2018-09-04T14:31:20.514Z,14.40
2018-09-04T14:33:49.858Z,12.93
2018-09-04T14:36:19.181Z,13.08
2018-09-04T14:38:48.406Z,15.43
2018-09-04T14:41:17.769Z,12.23
2018-09-04T14:43:48.015Z,12.55
2018-09-04T14:46:17.262Z,13.78
2018-09-04T14:48:46.650Z,16.30
2018-09-04T14:51:16.017Z,17.02
2018-09-04T14:53:46.473Z,15.90
2018-09-04T14:56:15.674Z,14.73
2018-09-04T14:58:44.942Z,13.53
2018-09-04T15:01:14.139Z,12.58
2018-09-04T15:03:43.594Z,12.82
2018-09-04T15:06:12.853Z,12.80
2018-09-04T15:08:42.293Z,14.55
2018-09-04T15:11:11.566Z,15.13
2018-09-04T15:13:41.108Z,16.57
2018-09-04T15:16:10.371Z,17.13
2018-09-04T15:18:39.694Z,16.60
2018-09-04T15:21:08.990Z,17.20
2018-09-04T15:23:38.293Z,15.83
2018-09-04T15:26:07.830Z,16.07
2018-09-04T15:28:36.999Z,17.90
2018-09-04T15:31:06.563Z,19.97
2018-09-04T15:33:35.942Z,19.80
2018-09-04T15:36:05.334Z,21.00
2018-09-04T15:38:34.632Z,18.33
2018-09-04T15:42:19.498Z,18.67
2018-09-04T15:44:48.797Z,21.47
2018-09-04T15:47:17.971Z,22.07
2018-09-04T15:49:48.522Z,21.57
2018-09-04T15:52:18.246Z,21.70
2018-09-04T15:54:47.521Z,21.83
2018-09-04T15:57:16.767Z,20.53
2018-09-04T15:59:45.947Z,19.60
2018-09-04T16:02:15.214Z,20.97
2018-09-04T16:04:44.534Z,20.37
2018-09-04T16:07:13.822Z,23.23
2018-09-04T16:09:43.287Z,20.57
2018-09-04T16:12:12.514Z,18.37
2018-09-04T16:14:41.869Z,22.43
2018-09-04T16:17:11.327Z,16.50
2018-09-04T16:19:40.601Z,17.70
2018-09-04T16:22:09.821Z,16.47
2018-09-04T16:24:38.969Z,13.73
2018-09-04T16:27:08.213Z,13.40
2018-09-04T16:29:37.517Z,14.77
2018-09-04T16:32:06.902Z,15.20
2018-09-04T16:34:36.242Z,15.50
2018-09-04T16:37:05.534Z,12.07
2018-09-04T16:39:34.883Z,14.97
2018-09-04T16:42:04.079Z,13.93
2018-09-04T16:44:33.348Z,11.67
2018-09-04T16:47:02.638Z,9.43
2018-09-04T16:49:31.846Z,9.23
2018-09-04T16:52:01.849Z,13.87
2018-09-04T16:54:31.280Z,12.00
2018-09-04T16:57:00.576Z,13.27
2018-09-04T16:59:30.003Z,12.80
2018-09-04T17:01:59.160Z,12.07
2018-09-04T17:04:28.459Z,14.17
2018-09-04T17:06:57.731Z,11.73
2018-09-04T17:09:26.974Z,12.23
2018-09-04T17:11:56.260Z,14.10
2018-09-04T17:14:25.399Z,13.70
2018-09-04T17:16:54.745Z,12.40
2018-09-04T17:19:24.081Z,14.70
2018-09-04T17:21:53.465Z,15.83
2018-09-04T17:24:22.654Z,17.20
2018-09-04T17:26:52.034Z,15.70
2018-09-04T17:29:21.289Z,17.80
2018-09-04T17:31:50.485Z,18.67
2018-09-04T17:34:19.753Z,21.50
2018-09-04T17:36:48.989Z,18.20
2018-09-04T17:39:18.276Z,19.33
2018-09-04T17:41:47.630Z,18.73
2018-09-04T17:44:16.814Z,15.97
2018-09-04T17:46:46.068Z,17.70
2018-09-04T17:49:15.304Z,17.90
2018-09-04T17:51:44.602Z,16.77
2018-09-04T17:54:13.882Z,16.77
2018-09-04T17:56:43.178Z,17.27
2018-09-04T17:59:12.442Z,15.57
2018-09-04T18:01:41.664Z,19.43
2018-09-04T18:04:10.858Z,18.17
2018-09-04T18:06:40.015Z,16.93
2018-09-04T18:09:09.567Z,19.33
2018-09-04T18:11:38.717Z,16.30
2018-09-04T18:14:08.054Z,19.10
2018-09-04T18:16:37.337Z,17.80
2018-09-04T18:19:06.662Z,19.63
2018-09-04T18:21:36.102Z,16.90
2018-09-04T18:24:05.506Z,17.57
2018-09-04T18:26:34.764Z,18.60
2018-09-04T18:29:03.990Z,16.53
2018-09-04T18:31:33.360Z,17.93
2018-09-04T18:34:02.559Z,16.43
2018-09-04T18:36:31.785Z,17.77
2018-09-04T18:39:01.058Z,15.73
2018-09-04T18:41:30.415Z,17.80
2018-09-04T18:43:59.701Z,15.80
2018-09-04T18:46:28.958Z,17.30
2018-09-04T18:48:58.292Z,17.73
2018-09-04T18:51:27.747Z,17.77
2018-09-04T18:53:57.726Z,18.60
2018-09-04T18:56:27.145Z,17.93
2018-09-04T18:58:56.419Z,17.33
2018-09-04T19:01:25.682Z,17.07
2018-09-04T19:03:55.045Z,17.47
2018-09-04T19:06:24.294Z,17.63
2018-09-04T19:08:53.538Z,19.23
2018-09-04T19:11:22.846Z,19.43
2018-09-04T19:13:51.982Z,19.87
2018-09-04T19:16:21.175Z,20.27
2018-09-04T19:18:50.498Z,19.37
2018-09-04T19:21:19.865Z,18.57
2018-09-04T19:23:49.236Z,19.53
2018-09-04T19:26:18.482Z,19.13
2018-09-04T19:28:47.890Z,19.90
2018-09-04T19:31:17.161Z,17.77
2018-09-04T19:33:46.496Z,17.77
2018-09-04T19:36:15.696Z,17.07
2018-09-04T19:38:44.966Z,19.40
2018-09-04T19:41:14.183Z,18.00
2018-09-04T19:43:43.498Z,21.77
2018-09-04T19:46:12.641Z,20.27
2018-09-04T19:48:41.891Z,17.50
2018-09-04T19:51:11.088Z,16.40
2018-09-04T19:53:40.330Z,21.10
2018-09-04T19:56:09.687Z,18.67
2018-09-04T19:58:38.998Z,20.27
2018-09-04T20:01:08.240Z,22.20
2018-09-04T20:03:37.571Z,22.87
2018-09-04T20:06:06.741Z,22.67
2018-09-04T20:08:36.003Z,21.43
2018-09-04T20:11:05.170Z,22.00
2018-09-04T20:13:34.360Z,23.57
2018-09-04T20:16:03.681Z,22.83
2018-09-04T20:18:32.914Z,20.10
2018-09-04T20:21:02.235Z,21.77
2018-09-04T20:23:31.527Z,24.37
2018-09-04T20:26:00.713Z,23.10
2018-09-04T20:28:29.966Z,25.27
2018-09-04T20:30:59.112Z,26.77
2018-09-04T20:33:28.298Z,27.53
2018-09-04T20:35:57.597Z,27.07
2018-09-04T20:38:26.733Z,27.70
2018-09-04T20:40:55.950Z,25.70
2018-09-04T20:43:25.386Z,27.23
2018-09-04T20:45:54.521Z,27.43
2018-09-04T20:48:23.666Z,29.70
2018-09-04T20:50:53.007Z,26.33
2018-09-04T20:53:22.214Z,30.90
2018-09-04T20:55:51.513Z,29.30
2018-09-04T20:58:31.978Z,26.70
2018-09-04T21:01:11.870Z,28.40
2018-09-04T21:03:52.053Z,29.00
2018-09-04T21:06:32.014Z,29.30
2018-09-04T21:09:07.265Z,28.27
2018-09-04T21:11:36.506Z,30.17
2018-09-04T21:14:05.846Z,28.80
2018-09-04T21:16:35.093Z,30.10
2018-09-04T21:19:04.338Z,27.07
2018-09-04T21:21:33.618Z,33.20
2018-09-04T21:24:02.841Z,27.97
2018-09-04T21:26:32.048Z,30.97
2018-09-04T21:29:01.588Z,27.33
2018-09-04T21:31:30.926Z,32.73
2018-09-04T21:34:00.038Z,30.33
2018-09-04T21:36:29.416Z,29.20
2018-09-04T21:38:58.741Z,27.53
2018-09-04T21:41:28.012Z,28.20
2018-09-04T21:43:57.284Z,28.90
2018-09-04T21:46:26.494Z,26.50
2018-09-04T21:48:55.701Z,26.63
2018-09-04T21:51:24.983Z,27.53
2018-09-04T21:53:54.064Z,29.47
2018-09-04T21:56:23.318Z,28.73
2018-09-04T21:58:52.526Z,33.60
2018-09-04T22:01:21.720Z,31.87
2018-09-04T22:03:51.018Z,30.50
2018-09-04T22:06:20.183Z,30.77
2018-09-04T22:08:49.654Z,28.53
2018-09-04T22:11:18.914Z,29.40
2018-09-04T22:13:48.134Z,29.17
2018-09-04T22:16:17.457Z,31.70
2018-09-04T22:18:46.855Z,31.83
2018-09-04T22:21:16.269Z,32.47
2018-09-04T22:23:45.362Z,33.67
2018-09-04T22:26:14.556Z,33.77
2018-09-04T22:28:43.659Z,29.97
2018-09-04T22:31:13.019Z,32.60
2018-09-04T22:33:42.263Z,29.43
2018-09-04T22:36:11.489Z,33.57
2018-09-04T22:38:40.619Z,35.37
2018-09-04T22:41:09.765Z,30.20
2018-09-04T22:43:39.008Z,30.23
2018-09-04T22:46:08.470Z,30.53
2018-09-04T22:48:37.716Z,28.07
2018-09-04T22:51:12.030Z,29.20
2018-09-04T22:53:41.201Z,27.67
2018-09-04T22:56:10.507Z,32.10
2018-09-04T22:58:39.658Z,34.80
2018-09-04T23:01:08.776Z,37.20
2018-09-04T23:03:37.908Z,34.37
2018-09-04T23:06:07.193Z,36.83
2018-09-04T23:08:36.342Z,31.77
2018-09-04T23:11:05.572Z,30.93
2018-09-04T23:13:34.794Z,27.50
2018-09-04T23:16:04.106Z,31.17
2018-09-04T23:18:33.203Z,28.77
2018-09-04T23:21:02.342Z,26.40
2018-09-04T23:23:31.574Z,28.80
2018-09-04T23:26:00.858Z,27.07
2018-09-04T23:28:29.945Z,26.87
2018-09-04T23:30:59.333Z,26.97
2018-09-04T23:33:28.607Z,30.37
2018-09-04T23:35:57.830Z,28.70
2018-09-04T23:38:26.991Z,33.07
2018-09-04T23:40:56.210Z,33.97
2018-09-04T23:43:25.415Z,36.17
2018-09-04T23:45:54.668Z,32.97
2018-09-04T23:48:23.911Z,32.93
2018-09-04T23:50:53.311Z,33.10
2018-09-04T23:53:22.545Z,34.33
2018-09-04T23:55:51.741Z,30.97
2018-09-04T23:58:21.087Z,31.00
